sensor_id;sensor_type;location;lat;lon;timestamp;P1;durP1;ratioP1;P2;durP2;ratioP2
74620;SDS011;64861;47.546;19.254;2023-02-04T07:01:00;3.08;;;0.98;;
74620;SDS011;64861;47.546;19.254;2023-02-04T07:03:25;2.58;;;0.80;;
74620;SDS011;64861;47.546;19.254;2023-02-04T07:05:50;2.50;;;0.93;;
74620;SDS011;64861;47.546;19.254;2023-02-04T07:08:17;2.35;;;0.80;;
74620;SDS011;64861;47.546;19.254;2023-02-04T07:10:42;2.85;;;1.00;;
74620;SDS011;64861;47.546;19.254;2023-02-04T07:13:08;2.33;;;0.93;;
74620;SDS011;64861;47.546;19.254;2023-02-04T07:15:33;3.22;;;0.90;;
74620;SDS011;64861;47.546;19.254;2023-02-04T07:17:59;2.42;;;0.80;;
74620;SDS011;64861;47.546;19.254;2023-02-04T07:20:24;3.13;;;1.25;;
74620;SDS011;64861;47.546;19.254;2023-02-04T07:22:49;2.42;;;0.80;;
74620;SDS011;64861;47.546;19.254;2023-02-04T07:25:15;2.83;;;0.90;;
74620;SDS011;64861;47.546;19.254;2023-02-04T07:27:42;3.03;;;1.20;;
74620;SDS011;64861;47.546;19.254;2023-02-04T07:30:07;3.03;;;1.10;;
74620;SDS011;64861;47.546;19.254;2023-02-04T07:32:34;3.20;;;0.95;;
74620;SDS011;64861;47.546;19.254;2023-02-04T07:34:59;2.47;;;0.90;;
74620;SDS011;64861;47.546;19.254;2023-02-04T07:37:25;3.15;;;1.00;;
74620;SDS011;64861;47.546;19.254;2023-02-04T07:39:50;2.53;;;0.95;;
74620;SDS011;64861;47.546;19.254;2023-02-04T07:42:15;3.08;;;1.05;;
74620;SDS011;64861;47.546;19.254;2023-02-04T07:44:41;3.13;;;0.93;;
74620;SDS011;64861;47.546;19.254;2023-02-04T07:47:07;2.92;;;0.95;;
74620;SDS011;64861;47.546;19.254;2023-02-04T08:04:57;2.55;;;1.00;;
74620;SDS011;64861;47.546;19.254;2023-02-04T08:07:22;3.22;;;1.20;;
74620;SDS011;64861;47.546;19.254;2023-02-04T08:09:48;2.58;;;1.00;;
74620;SDS011;64861;47.546;19.254;2023-02-04T08:12:14;3.00;;;1.10;;
74620;SDS011;64861;47.546;19.254;2023-02-04T08:14:39;2.80;;;1.00;;
74620;SDS011;64861;47.546;19.254;2023-02-04T08:17:05;2.40;;;0.90;;
74620;SDS011;64861;47.546;19.254;2023-02-04T08:19:30;3.92;;;1.27;;
74620;SDS011;64861;47.546;19.254;2023-02-04T08:21:56;3.33;;;1.10;;
74620;SDS011;64861;47.546;19.254;2023-02-04T08:24:21;2.08;;;1.02;;
74620;SDS011;64861;47.546;19.254;2023-02-04T08:26:46;2.75;;;1.08;;
74620;SDS011;64861;47.546;19.254;2023-02-04T08:29:12;3.75;;;1.10;;
74620;SDS011;64861;47.546;19.254;2023-02-04T08:31:37;2.80;;;1.10;;
74620;SDS011;64861;47.546;19.254;2023-02-04T08:34:03;2.55;;;1.00;;
74620;SDS011;64861;47.546;19.254;2023-02-04T08:36:30;4.07;;;1.30;;
74620;SDS011;64861;47.546;19.254;2023-02-04T08:38:56;3.75;;;1.33;;
74620;SDS011;64861;47.546;19.254;2023-02-04T08:41:21;2.70;;;0.98;;
74620;SDS011;64861;47.546;19.254;2023-02-04T08:43:47;3.38;;;1.20;;
74620;SDS011;64861;47.546;19.254;2023-02-04T08:46:12;3.17;;;1.30;;
74620;SDS011;64861;47.546;19.254;2023-02-04T08:48:37;3.00;;;1.30;;
74620;SDS011;64861;47.546;19.254;2023-02-04T08:51:03;2.50;;;1.00;;
74620;SDS011;64861;47.546;19.254;2023-02-04T08:53:29;4.05;;;1.20;;
74620;SDS011;64861;47.546;19.254;2023-02-04T08:55:54;2.65;;;1.00;;
74620;SDS011;64861;47.546;19.254;2023-02-04T08:58:19;2.80;;;1.10;;
74620;SDS011;64861;47.546;19.254;2023-02-04T09:00:45;3.17;;;1.10;;
74620;SDS011;64861;47.546;19.254;2023-02-04T09:03:10;2.92;;;1.25;;
74620;SDS011;64861;47.546;19.254;2023-02-04T09:05:36;3.08;;;1.00;;
74620;SDS011;64861;47.546;19.254;2023-02-04T09:08:01;3.33;;;1.10;;
74620;SDS011;64861;47.546;19.254;2023-02-04T09:10:27;3.80;;;1.30;;
74620;SDS011;64861;47.546;19.254;2023-02-04T09:12:52;3.30;;;0.95;;
74620;SDS011;64861;47.546;19.254;2023-02-04T09:15:20;3.28;;;1.13;;
74620;SDS011;64861;47.546;19.254;2023-02-04T09:17:47;2.38;;;1.00;;
74620;SDS011;64861;47.546;19.254;2023-02-04T09:20:12;2.53;;;1.05;;
74620;SDS011;64861;47.546;19.254;2023-02-04T09:22:38;3.38;;;1.30;;
74620;SDS011;64861;47.546;19.254;2023-02-04T09:25:03;2.92;;;1.05;;
74620;SDS011;64861;47.546;19.254;2023-02-04T09:27:29;2.70;;;1.08;;
74620;SDS011;64861;47.546;19.254;2023-02-04T09:29:54;2.63;;;1.10;;
74620;SDS011;64861;47.546;19.254;2023-02-04T09:32:20;2.72;;;1.00;;
74620;SDS011;64861;47.546;19.254;2023-02-04T09:34:46;2.83;;;1.00;;
74620;SDS011;64861;47.546;19.254;2023-02-04T09:37:11;2.78;;;1.13;;
74620;SDS011;64861;47.546;19.254;2023-02-04T09:39:37;2.65;;;1.13;;
74620;SDS011;64861;47.546;19.254;2023-02-04T09:42:02;2.55;;;0.95;;
74620;SDS011;64861;47.546;19.254;2023-02-04T09:44:28;2.88;;;1.23;;
74620;SDS011;64861;47.546;19.254;2023-02-04T09:46:55;4.60;;;1.15;;
74620;SDS011;64861;47.546;19.254;2023-02-04T09:49:22;3.28;;;1.05;;
74620;SDS011;64861;47.546;19.254;2023-02-04T09:51:49;3.15;;;1.08;;
74620;SDS011;64861;47.546;19.254;2023-02-04T09:54:18;4.80;;;1.02;;
74620;SDS011;64861;47.546;19.254;2023-02-04T09:56:45;3.83;;;1.10;;
74620;SDS011;64861;47.546;19.254;2023-02-04T09:59:13;2.88;;;1.20;;
74620;SDS011;64861;47.546;19.254;2023-02-04T10:01:54;5.55;;;1.13;;
74620;SDS011;64861;47.546;19.254;2023-02-04T10:04:23;2.50;;;1.00;;
74620;SDS011;64861;47.546;19.254;2023-02-04T10:06:49;3.05;;;1.10;;
74620;SDS011;64861;47.546;19.254;2023-02-04T10:09:15;3.08;;;0.93;;
74620;SDS011;64861;47.546;19.254;2023-02-04T10:11:41;4.57;;;1.10;;
74620;SDS011;64861;47.546;19.254;2023-02-04T10:14:12;2.58;;;1.00;;
74620;SDS011;64861;47.546;19.254;2023-02-04T10:16:44;2.60;;;1.08;;
74620;SDS011;64861;47.546;19.254;2023-02-04T10:19:16;4.75;;;0.82;;
74620;SDS011;64861;47.546;19.254;2023-02-04T10:21:45;4.10;;;1.00;;
74620;SDS011;64861;47.546;19.254;2023-02-04T10:24:15;4.35;;;1.00;;
74620;SDS011;64861;47.546;19.254;2023-02-04T10:26:42;4.40;;;1.30;;
74620;SDS011;64861;47.546;19.254;2023-02-04T10:29:13;3.80;;;1.10;;
74620;SDS011;64861;47.546;19.254;2023-02-04T10:31:42;3.65;;;1.00;;
74620;SDS011;64861;47.546;19.254;2023-02-04T10:34:11;2.65;;;0.93;;
74620;SDS011;64861;47.546;19.254;2023-02-04T10:36:45;2.75;;;0.90;;
74620;SDS011;64861;47.546;19.254;2023-02-04T10:39:23;3.40;;;1.20;;
74620;SDS011;64861;47.546;19.254;2023-02-04T10:41:51;5.78;;;1.20;;
74620;SDS011;64861;47.546;19.254;2023-02-04T10:44:19;2.85;;;1.10;;
74620;SDS011;64861;47.546;19.254;2023-02-04T10:47:01;5.05;;;1.10;;
74620;SDS011;64861;47.546;19.254;2023-02-04T10:49:32;2.28;;;0.93;;
74620;SDS011;64861;47.546;19.254;2023-02-04T10:51:59;2.75;;;1.10;;
74620;SDS011;64861;47.546;19.254;2023-02-04T10:54:27;2.70;;;0.90;;
74620;SDS011;64861;47.546;19.254;2023-02-04T10:59:46;3.65;;;1.17;;
74620;SDS011;64861;47.546;19.254;2023-02-04T11:02:25;2.80;;;1.23;;
74620;SDS011;64861;47.546;19.254;2023-02-04T11:05:00;2.03;;;0.90;;
74620;SDS011;64861;47.546;19.254;2023-02-04T11:07:26;4.03;;;1.20;;
74620;SDS011;64861;47.546;19.254;2023-02-04T11:09:51;3.15;;;1.10;;
74620;SDS011;64861;47.546;19.254;2023-02-04T11:12:21;3.72;;;1.00;;
74620;SDS011;64861;47.546;19.254;2023-02-04T11:14:59;1.77;;;0.90;;
74620;SDS011;64861;47.546;19.254;2023-02-04T11:17:33;2.58;;;1.10;;
74620;SDS011;64861;47.546;19.254;2023-02-04T11:19:59;2.90;;;0.90;;
74620;SDS011;64861;47.546;19.254;2023-02-04T11:22:41;3.05;;;1.20;;
74620;SDS011;64861;47.546;19.254;2023-02-04T11:28:00;2.80;;;1.05;;
74620;SDS011;64861;47.546;19.254;2023-02-04T11:30:38;3.28;;;1.10;;
74620;SDS011;64861;47.546;19.254;2023-02-04T11:33:05;2.83;;;1.10;;
74620;SDS011;64861;47.546;19.254;2023-02-04T11:36:18;4.00;;;1.30;;
74620;SDS011;64861;47.546;19.254;2023-02-04T11:38:39;2.55;;;1.00;;
74620;SDS011;64861;47.546;19.254;2023-02-04T11:41:21;2.15;;;0.98;;
74620;SDS011;64861;47.546;19.254;2023-02-04T11:43:51;2.05;;;1.00;;
74620;SDS011;64861;47.546;19.254;2023-02-04T11:46:17;2.95;;;0.93;;
74620;SDS011;64861;47.546;19.254;2023-02-04T11:48:44;2.38;;;0.95;;
74620;SDS011;64861;47.546;19.254;2023-02-04T11:51:11;3.25;;;1.30;;
74620;SDS011;64861;47.546;19.254;2023-02-04T11:53:39;2.40;;;1.00;;
74620;SDS011;64861;47.546;19.254;2023-02-04T11:56:04;3.63;;;1.45;;
74620;SDS011;64861;47.546;19.254;2023-02-04T11:58:30;2.67;;;1.27;;
74620;SDS011;64861;47.546;19.254;2023-02-04T12:00:56;3.05;;;1.23;;
74620;SDS011;64861;47.546;19.254;2023-02-04T12:03:26;2.90;;;1.08;;
74620;SDS011;64861;47.546;19.254;2023-02-04T12:05:58;3.78;;;1.20;;
74620;SDS011;64861;47.546;19.254;2023-02-04T12:11:03;2.35;;;1.05;;
74620;SDS011;64861;47.546;19.254;2023-02-04T12:13:29;2.88;;;1.00;;
74620;SDS011;64861;47.546;19.254;2023-02-04T12:15:59;3.15;;;1.20;;
74620;SDS011;64861;47.546;19.254;2023-02-04T12:18:26;2.53;;;1.00;;
74620;SDS011;64861;47.546;19.254;2023-02-04T12:20:53;3.40;;;1.30;;
74620;SDS011;64861;47.546;19.254;2023-02-04T12:23:20;2.33;;;1.10;;
74620;SDS011;64861;47.546;19.254;2023-02-04T12:25:46;3.17;;;1.50;;
74620;SDS011;64861;47.546;19.254;2023-02-04T12:28:12;3.00;;;1.20;;
74620;SDS011;64861;47.546;19.254;2023-02-04T12:30:38;2.85;;;1.20;;
74620;SDS011;64861;47.546;19.254;2023-02-04T12:33:03;2.45;;;1.13;;
74620;SDS011;64861;47.546;19.254;2023-02-04T12:35:29;3.13;;;1.13;;
74620;SDS011;64861;47.546;19.254;2023-02-04T12:37:54;3.35;;;1.20;;
74620;SDS011;64861;47.546;19.254;2023-02-04T12:40:20;3.45;;;1.00;;
74620;SDS011;64861;47.546;19.254;2023-02-04T12:42:46;5.57;;;1.20;;
74620;SDS011;64861;47.546;19.254;2023-02-04T12:45:12;2.83;;;1.10;;
74620;SDS011;64861;47.546;19.254;2023-02-04T12:47:39;4.22;;;1.35;;
74620;SDS011;64861;47.546;19.254;2023-02-04T12:50:06;5.63;;;1.08;;
74620;SDS011;64861;47.546;19.254;2023-02-04T12:52:32;5.30;;;1.40;;
74620;SDS011;64861;47.546;19.254;2023-02-04T12:54:58;4.72;;;1.30;;
74620;SDS011;64861;47.546;19.254;2023-02-04T12:57:26;2.22;;;0.95;;
74620;SDS011;64861;47.546;19.254;2023-02-04T12:59:51;3.90;;;1.17;;
74620;SDS011;64861;47.546;19.254;2023-02-04T13:02:17;3.47;;;1.10;;
74620;SDS011;64861;47.546;19.254;2023-02-04T13:04:42;2.70;;;1.02;;
74620;SDS011;64861;47.546;19.254;2023-02-04T13:07:08;5.63;;;1.30;;
74620;SDS011;64861;47.546;19.254;2023-02-04T13:09:34;4.38;;;1.10;;
74620;SDS011;64861;47.546;19.254;2023-02-04T13:12:01;4.85;;;1.08;;
74620;SDS011;64861;47.546;19.254;2023-02-04T13:14:26;5.30;;;1.17;;
74620;SDS011;64861;47.546;19.254;2023-02-04T13:16:51;4.35;;;1.17;;
74620;SDS011;64861;47.546;19.254;2023-02-04T13:19:17;4.30;;;1.15;;
74620;SDS011;64861;47.546;19.254;2023-02-04T13:21:42;3.15;;;1.17;;
74620;SDS011;64861;47.546;19.254;2023-02-04T13:24:08;4.82;;;1.20;;
74620;SDS011;64861;47.546;19.254;2023-02-04T13:26:33;2.97;;;1.10;;
74620;SDS011;64861;47.546;19.254;2023-02-04T13:28:59;3.50;;;1.17;;
74620;SDS011;64861;47.546;19.254;2023-02-04T13:31:24;4.97;;;1.23;;
74620;SDS011;64861;47.546;19.254;2023-02-04T13:33:51;3.05;;;1.20;;
74620;SDS011;64861;47.546;19.254;2023-02-04T13:36:16;3.88;;;1.15;;
74620;SDS011;64861;47.546;19.254;2023-02-04T13:38:42;2.95;;;1.20;;
74620;SDS011;64861;47.546;19.254;2023-02-04T13:41:07;3.47;;;0.95;;
74620;SDS011;64861;47.546;19.254;2023-02-04T13:43:32;3.33;;;1.10;;
74620;SDS011;64861;47.546;19.254;2023-02-04T13:45:58;4.80;;;1.02;;
74620;SDS011;64861;47.546;19.254;2023-02-04T13:48:24;4.35;;;1.00;;
74620;SDS011;64861;47.546;19.254;2023-02-04T13:50:50;4.20;;;0.90;;
74620;SDS011;64861;47.546;19.254;2023-02-04T13:53:16;3.58;;;1.38;;
74620;SDS011;64861;47.546;19.254;2023-02-04T13:55:41;3.92;;;1.10;;
74620;SDS011;64861;47.546;19.254;2023-02-04T13:58:07;5.05;;;1.10;;
74620;SDS011;64861;47.546;19.254;2023-02-04T14:00:32;4.90;;;1.20;;
74620;SDS011;64861;47.546;19.254;2023-02-04T14:02:58;2.88;;;1.10;;
74620;SDS011;64861;47.546;19.254;2023-02-04T14:05:23;4.15;;;0.90;;
74620;SDS011;64861;47.546;19.254;2023-02-04T14:07:49;3.58;;;1.20;;
74620;SDS011;64861;47.546;19.254;2023-02-04T14:10:15;2.60;;;1.10;;
74620;SDS011;64861;47.546;19.254;2023-02-04T14:12:42;2.83;;;1.10;;
74620;SDS011;64861;47.546;19.254;2023-02-04T14:15:08;2.92;;;1.30;;
74620;SDS011;64861;47.546;19.254;2023-02-04T14:17:33;5.55;;;1.65;;
74620;SDS011;64861;47.546;19.254;2023-02-04T14:19:59;3.67;;;1.23;;
74620;SDS011;64861;47.546;19.254;2023-02-04T14:22:24;3.90;;;1.13;;
74620;SDS011;64861;47.546;19.254;2023-02-04T14:24:49;6.70;;;1.40;;
74620;SDS011;64861;47.546;19.254;2023-02-04T14:27:15;2.03;;;1.00;;
74620;SDS011;64861;47.546;19.254;2023-02-04T14:29:40;4.45;;;1.30;;
74620;SDS011;64861;47.546;19.254;2023-02-04T14:32:06;3.95;;;1.30;;
74620;SDS011;64861;47.546;19.254;2023-02-04T14:34:32;3.83;;;1.33;;
74620;SDS011;64861;47.546;19.254;2023-02-04T14:36:57;3.47;;;1.20;;
74620;SDS011;64861;47.546;19.254;2023-02-04T14:39:23;5.53;;;1.23;;
74620;SDS011;64861;47.546;19.254;2023-02-04T14:41:49;3.55;;;1.20;;
74620;SDS011;64861;47.546;19.254;2023-02-04T14:44:14;3.70;;;1.38;;
74620;SDS011;64861;47.546;19.254;2023-02-04T14:46:45;3.25;;;1.08;;
74620;SDS011;64861;47.546;19.254;2023-02-04T14:49:13;3.53;;;1.20;;
74620;SDS011;64861;47.546;19.254;2023-02-04T14:51:41;3.83;;;1.38;;
74620;SDS011;64861;47.546;19.254;2023-02-04T14:54:07;3.38;;;1.38;;
74620;SDS011;64861;47.546;19.254;2023-02-04T14:56:32;3.55;;;1.50;;
74620;SDS011;64861;47.546;19.254;2023-02-04T14:58:58;4.57;;;1.45;;
74620;SDS011;64861;47.546;19.254;2023-02-04T15:01:23;3.13;;;1.20;;
74620;SDS011;64861;47.546;19.254;2023-02-04T15:03:49;4.45;;;1.38;;
74620;SDS011;64861;47.546;19.254;2023-02-04T15:06:15;3.00;;;1.30;;
74620;SDS011;64861;47.546;19.254;2023-02-04T15:08:41;2.28;;;1.10;;
74620;SDS011;64861;47.546;19.254;2023-02-04T15:11:08;3.05;;;1.05;;
74620;SDS011;64861;47.546;19.254;2023-02-04T15:13:34;2.78;;;1.10;;
74620;SDS011;64861;47.546;19.254;2023-02-04T15:15:59;4.07;;;1.20;;
74620;SDS011;64861;47.546;19.254;2023-02-04T15:18:25;2.83;;;1.10;;
74620;SDS011;64861;47.546;19.254;2023-02-04T15:20:50;2.55;;;1.08;;
74620;SDS011;64861;47.546;19.254;2023-02-04T15:23:16;4.80;;;1.50;;
74620;SDS011;64861;47.546;19.254;2023-02-04T15:25:42;5.47;;;1.30;;
74620;SDS011;64861;47.546;19.254;2023-02-04T15:28:07;4.85;;;1.30;;
74620;SDS011;64861;47.546;19.254;2023-02-04T15:30:33;5.32;;;1.27;;
74620;SDS011;64861;47.546;19.254;2023-02-04T15:32:58;6.80;;;1.42;;
74620;SDS011;64861;47.546;19.254;2023-02-04T15:35:24;4.88;;;1.30;;
74620;SDS011;64861;47.546;19.254;2023-02-04T15:37:49;17.65;;;2.05;;
74620;SDS011;64861;47.546;19.254;2023-02-04T15:40:15;6.90;;;1.50;;
74620;SDS011;64861;47.546;19.254;2023-02-04T15:42:41;10.95;;;1.40;;
74620;SDS011;64861;47.546;19.254;2023-02-04T15:45:07;19.88;;;1.23;;
74620;SDS011;64861;47.546;19.254;2023-02-04T15:47:33;6.07;;;1.50;;
74620;SDS011;64861;47.546;19.254;2023-02-04T15:49:58;8.30;;;1.40;;
74620;SDS011;64861;47.546;19.254;2023-02-04T15:52:25;8.48;;;1.63;;
74620;SDS011;64861;47.546;19.254;2023-02-04T15:54:51;13.43;;;1.77;;
74620;SDS011;64861;47.546;19.254;2023-02-04T15:57:16;6.38;;;1.70;;
74620;SDS011;64861;47.546;19.254;2023-02-04T15:59:42;15.63;;;1.83;;
74620;SDS011;64861;47.546;19.254;2023-02-04T16:02:08;10.35;;;1.70;;
74620;SDS011;64861;47.546;19.254;2023-02-04T16:04:35;8.27;;;1.85;;
74620;SDS011;64861;47.546;19.254;2023-02-04T16:07:00;7.55;;;1.60;;
74620;SDS011;64861;47.546;19.254;2023-02-04T16:09:32;9.65;;;1.60;;
74620;SDS011;64861;47.546;19.254;2023-02-04T16:11:58;11.05;;;1.73;;
74620;SDS011;64861;47.546;19.254;2023-02-04T16:14:23;3.22;;;1.27;;
74620;SDS011;64861;47.546;19.254;2023-02-04T16:16:49;6.95;;;1.25;;
74620;SDS011;64861;47.546;19.254;2023-02-04T16:19:14;7.80;;;1.40;;
74620;SDS011;64861;47.546;19.254;2023-02-04T16:21:41;8.48;;;1.45;;
74620;SDS011;64861;47.546;19.254;2023-02-04T16:24:06;9.75;;;2.30;;
74620;SDS011;64861;47.546;19.254;2023-02-04T16:26:32;18.30;;;2.08;;
74620;SDS011;64861;47.546;19.254;2023-02-04T16:28:57;17.63;;;2.10;;
74620;SDS011;64861;47.546;19.254;2023-02-04T16:31:23;25.38;;;2.72;;
74620;SDS011;64861;47.546;19.254;2023-02-04T16:33:48;28.00;;;2.90;;
74620;SDS011;64861;47.546;19.254;2023-02-04T16:36:14;39.13;;;3.40;;
74620;SDS011;64861;47.546;19.254;2023-02-04T16:38:39;29.27;;;3.10;;
74620;SDS011;64861;47.546;19.254;2023-02-04T16:41:07;30.08;;;3.25;;
74620;SDS011;64861;47.546;19.254;2023-02-04T16:43:34;23.98;;;2.72;;
74620;SDS011;64861;47.546;19.254;2023-02-04T16:45:59;24.55;;;3.38;;
74620;SDS011;64861;47.546;19.254;2023-02-04T16:48:25;18.48;;;2.97;;
74620;SDS011;64861;47.546;19.254;2023-02-04T16:50:50;18.08;;;2.95;;
74620;SDS011;64861;47.546;19.254;2023-02-04T16:53:16;21.73;;;2.42;;
74620;SDS011;64861;47.546;19.254;2023-02-04T16:55:42;25.90;;;3.38;;
74620;SDS011;64861;47.546;19.254;2023-02-04T16:58:09;25.73;;;3.35;;
74620;SDS011;64861;47.546;19.254;2023-02-04T17:00:35;17.98;;;2.70;;
74620;SDS011;64861;47.546;19.254;2023-02-04T17:03:02;28.05;;;2.90;;
74620;SDS011;64861;47.546;19.254;2023-02-04T17:05:29;26.35;;;3.38;;
74620;SDS011;64861;47.546;19.254;2023-02-04T17:07:55;42.55;;;3.65;;
74620;SDS011;64861;47.546;19.254;2023-02-04T17:10:22;14.93;;;2.53;;
74620;SDS011;64861;47.546;19.254;2023-02-04T17:13:08;12.90;;;2.20;;
74620;SDS011;64861;47.546;19.254;2023-02-04T17:15:34;15.18;;;2.33;;
74620;SDS011;64861;47.546;19.254;2023-02-04T17:17:59;18.17;;;2.50;;
74620;SDS011;64861;47.546;19.254;2023-02-04T17:20:24;17.25;;;2.80;;
74620;SDS011;64861;47.546;19.254;2023-02-04T17:22:50;14.15;;;2.33;;
74620;SDS011;64861;47.546;19.254;2023-02-04T17:25:16;18.25;;;3.03;;
74620;SDS011;64861;47.546;19.254;2023-02-04T17:27:42;14.98;;;2.65;;
74620;SDS011;64861;47.546;19.254;2023-02-04T17:30:07;15.57;;;2.08;;
74620;SDS011;64861;47.546;19.254;2023-02-04T17:32:33;9.35;;;2.05;;
74620;SDS011;64861;47.546;19.254;2023-02-04T17:34:59;15.13;;;2.05;;
74620;SDS011;64861;47.546;19.254;2023-02-04T17:37:25;16.00;;;2.13;;
74620;SDS011;64861;47.546;19.254;2023-02-04T17:39:51;12.75;;;2.05;;
74620;SDS011;64861;47.546;19.254;2023-02-04T17:42:16;12.55;;;2.30;;
74620;SDS011;64861;47.546;19.254;2023-02-04T17:44:42;17.83;;;3.03;;
74620;SDS011;64861;47.546;19.254;2023-02-04T17:47:07;12.85;;;1.95;;
74620;SDS011;64861;47.546;19.254;2023-02-04T17:49:33;10.38;;;2.17;;
74620;SDS011;64861;47.546;19.254;2023-02-04T17:51:59;10.70;;;2.08;;
74620;SDS011;64861;47.546;19.254;2023-02-04T17:54:24;16.15;;;1.90;;
74620;SDS011;64861;47.546;19.254;2023-02-04T17:56:51;11.82;;;1.88;;
74620;SDS011;64861;47.546;19.254;2023-02-04T17:59:19;7.32;;;1.63;;
74620;SDS011;64861;47.546;19.254;2023-02-04T18:01:45;10.80;;;2.00;;
74620;SDS011;64861;47.546;19.254;2023-02-04T18:28:05;8.73;;;2.22;;
74620;SDS011;64861;47.546;19.254;2023-02-04T18:30:41;8.60;;;1.77;;
74620;SDS011;64861;47.546;19.254;2023-02-04T18:33:19;7.85;;;1.90;;
74620;SDS011;64861;47.546;19.254;2023-02-04T18:35:47;13.07;;;2.10;;
74620;SDS011;64861;47.546;19.254;2023-02-04T18:40:54;8.00;;;1.83;;
74620;SDS011;64861;47.546;19.254;2023-02-04T18:43:26;8.45;;;2.00;;
74620;SDS011;64861;47.546;19.254;2023-02-04T18:46:09;12.00;;;1.73;;
74620;SDS011;64861;47.546;19.254;2023-02-04T18:48:58;5.95;;;1.75;;
74620;SDS011;64861;47.546;19.254;2023-02-04T18:51:26;7.90;;;2.15;;
74620;SDS011;64861;47.546;19.254;2023-02-04T18:54:23;11.23;;;2.05;;
74620;SDS011;64861;47.546;19.254;2023-02-04T18:56:49;6.90;;;1.63;;
74620;SDS011;64861;47.546;19.254;2023-02-04T18:59:15;8.18;;;2.00;;
74620;SDS011;64861;47.546;19.254;2023-02-04T19:01:43;8.75;;;1.88;;
74620;SDS011;64861;47.546;19.254;2023-02-04T19:04:12;10.48;;;2.03;;
74620;SDS011;64861;47.546;19.254;2023-02-04T19:06:43;7.60;;;1.92;;
74620;SDS011;64861;47.546;19.254;2023-02-04T19:11:39;6.85;;;1.83;;
74620;SDS011;64861;47.546;19.254;2023-02-04T19:16:44;9.85;;;1.98;;
74620;SDS011;64861;47.546;19.254;2023-02-04T19:25:30;19.23;;;2.30;;
74620;SDS011;64861;47.546;19.254;2023-02-04T19:28:01;5.30;;;1.58;;
74620;SDS011;64861;47.546;19.254;2023-02-04T19:30:42;6.85;;;1.70;;
74620;SDS011;64861;47.546;19.254;2023-02-04T19:33:15;8.43;;;1.50;;
74620;SDS011;64861;47.546;19.254;2023-02-04T19:35:44;7.85;;;2.03;;
74620;SDS011;64861;47.546;19.254;2023-02-04T19:38:30;6.85;;;1.50;;
74620;SDS011;64861;47.546;19.254;2023-02-04T19:41:27;4.88;;;1.40;;
74620;SDS011;64861;47.546;19.254;2023-02-04T19:46:38;6.55;;;1.58;;
74620;SDS011;64861;47.546;19.254;2023-02-04T19:51:51;12.65;;;2.40;;
74620;SDS011;64861;47.546;19.254;2023-02-04T19:54:19;10.35;;;2.30;;
74620;SDS011;64861;47.546;19.254;2023-02-04T19:56:49;8.98;;;2.38;;
74620;SDS011;64861;47.546;19.254;2023-02-04T19:59:25;11.13;;;2.85;;
74620;SDS011;64861;47.546;19.254;2023-02-04T20:01:52;12.15;;;2.60;;
74620;SDS011;64861;47.546;19.254;2023-02-04T20:04:43;8.15;;;2.60;;
74620;SDS011;64861;47.546;19.254;2023-02-04T20:07:18;14.15;;;3.05;;
74620;SDS011;64861;47.546;19.254;2023-02-04T20:09:46;12.30;;;3.00;;
74620;SDS011;64861;47.546;19.254;2023-02-04T20:12:16;10.10;;;2.72;;
74620;SDS011;64861;47.546;19.254;2023-02-04T20:14:43;9.55;;;3.28;;
74620;SDS011;64861;47.546;19.254;2023-02-04T20:17:21;13.07;;;3.28;;
74620;SDS011;64861;47.546;19.254;2023-02-04T20:20:22;10.63;;;3.22;;
74620;SDS011;64861;47.546;19.254;2023-02-04T20:23:01;9.93;;;3.00;;
74620;SDS011;64861;47.546;19.254;2023-02-04T20:25:44;15.05;;;3.25;;
74620;SDS011;64861;47.546;19.254;2023-02-04T20:28:28;11.32;;;3.30;;
74620;SDS011;64861;47.546;19.254;2023-02-04T20:31:37;8.77;;;3.08;;
74620;SDS011;64861;47.546;19.254;2023-02-04T20:34:08;18.42;;;3.28;;
74620;SDS011;64861;47.546;19.254;2023-02-04T20:36:41;9.82;;;2.92;;
74620;SDS011;64861;47.546;19.254;2023-02-04T20:41:44;12.40;;;2.72;;
74620;SDS011;64861;47.546;19.254;2023-02-04T20:44:34;12.10;;;3.05;;
74620;SDS011;64861;47.546;19.254;2023-02-04T20:49:43;12.07;;;2.55;;
74620;SDS011;64861;47.546;19.254;2023-02-04T20:58:14;7.85;;;2.53;;
74620;SDS011;64861;47.546;19.254;2023-02-04T21:00:46;8.95;;;2.63;;
74620;SDS011;64861;47.546;19.254;2023-02-04T21:05:52;9.30;;;2.40;;
74620;SDS011;64861;47.546;19.254;2023-02-04T21:08:23;9.85;;;2.95;;
74620;SDS011;64861;47.546;19.254;2023-02-04T21:11:04;9.60;;;2.50;;
74620;SDS011;64861;47.546;19.254;2023-02-04T21:13:31;10.00;;;2.80;;
74620;SDS011;64861;47.546;19.254;2023-02-04T21:15:57;8.65;;;2.80;;
74620;SDS011;64861;47.546;19.254;2023-02-04T21:18:23;7.40;;;2.40;;
74620;SDS011;64861;47.546;19.254;2023-02-04T21:20:48;9.85;;;2.80;;
74620;SDS011;64861;47.546;19.254;2023-02-04T21:23:14;10.73;;;3.13;;
74620;SDS011;64861;47.546;19.254;2023-02-04T21:25:41;8.38;;;2.50;;
74620;SDS011;64861;47.546;19.254;2023-02-04T21:28:07;7.63;;;2.53;;
74620;SDS011;64861;47.546;19.254;2023-02-04T21:30:33;9.20;;;2.70;;
74620;SDS011;64861;47.546;19.254;2023-02-04T21:32:58;13.57;;;2.50;;
74620;SDS011;64861;47.546;19.254;2023-02-04T21:35:24;11.27;;;2.90;;
74620;SDS011;64861;47.546;19.254;2023-02-04T21:37:51;12.35;;;2.90;;
74620;SDS011;64861;47.546;19.254;2023-02-04T21:40:18;13.00;;;2.80;;
74620;SDS011;64861;47.546;19.254;2023-02-04T21:42:49;9.43;;;2.70;;
74620;SDS011;64861;47.546;19.254;2023-02-04T21:45:16;9.60;;;2.80;;
74620;SDS011;64861;47.546;19.254;2023-02-04T21:47:43;7.32;;;2.60;;
74620;SDS011;64861;47.546;19.254;2023-02-04T21:50:09;8.25;;;2.78;;
74620;SDS011;64861;47.546;19.254;2023-02-04T21:52:36;9.90;;;2.75;;
74620;SDS011;64861;47.546;19.254;2023-02-04T21:55:01;9.10;;;2.47;;
74620;SDS011;64861;47.546;19.254;2023-02-04T21:57:27;10.18;;;2.65;;
74620;SDS011;64861;47.546;19.254;2023-02-04T21:59:52;9.85;;;2.40;;
74620;SDS011;64861;47.546;19.254;2023-02-04T22:02:18;9.07;;;2.33;;
74620;SDS011;64861;47.546;19.254;2023-02-04T22:04:45;9.15;;;2.47;;
74620;SDS011;64861;47.546;19.254;2023-02-04T22:07:10;11.57;;;2.50;;
74620;SDS011;64861;47.546;19.254;2023-02-04T22:09:36;10.32;;;2.50;;
74620;SDS011;64861;47.546;19.254;2023-02-04T22:12:01;6.80;;;2.35;;
74620;SDS011;64861;47.546;19.254;2023-02-04T22:14:28;6.65;;;2.15;;
74620;SDS011;64861;47.546;19.254;2023-02-04T22:17:12;5.85;;;2.20;;
74620;SDS011;64861;47.546;19.254;2023-02-04T22:19:37;7.53;;;2.60;;
74620;SDS011;64861;47.546;19.254;2023-02-04T22:22:03;6.95;;;2.00;;
74620;SDS011;64861;47.546;19.254;2023-02-04T22:24:28;8.63;;;2.40;;
74620;SDS011;64861;47.546;19.254;2023-02-04T22:26:53;6.57;;;2.00;;
74620;SDS011;64861;47.546;19.254;2023-02-04T22:29:19;6.05;;;2.08;;
74620;SDS011;64861;47.546;19.254;2023-02-04T22:31:52;7.82;;;2.28;;
74620;SDS011;64861;47.546;19.254;2023-02-04T22:34:18;6.38;;;2.35;;
74620;SDS011;64861;47.546;19.254;2023-02-04T22:36:44;5.63;;;1.98;;
74620;SDS011;64861;47.546;19.254;2023-02-04T22:39:10;7.32;;;2.40;;
74620;SDS011;64861;47.546;19.254;2023-02-04T22:41:36;6.75;;;2.00;;
74620;SDS011;64861;47.546;19.254;2023-02-04T22:44:01;6.88;;;2.05;;
74620;SDS011;64861;47.546;19.254;2023-02-04T22:46:27;6.90;;;2.20;;
74620;SDS011;64861;47.546;19.254;2023-02-04T22:48:56;5.43;;;1.90;;
74620;SDS011;64861;47.546;19.254;2023-02-04T22:51:21;7.57;;;2.00;;
74620;SDS011;64861;47.546;19.254;2023-02-04T22:53:48;8.13;;;2.22;;
74620;SDS011;64861;47.546;19.254;2023-02-04T22:56:14;9.25;;;2.00;;